Time;durP1;ratioP1;P1;durP2;ratioP2;P2;SDS_P1;SDS_P2;PMS_P1;PMS_P2;Temp;Humidity;BMP_temperature;BMP_pressure;BME280_temperature;BME280_humidity;BME280_pressure;Samples;Min_cycle;Max_cycle;Signal;HPM_P1;HPM_P2
2021/03/01 00:01:11;;;;;;;17.40;13.97;;;2.80;99.90;;;;;;4985464;28;20172;-65
2021/03/01 00:03:36;;;;;;;18.07;14.47;;;2.70;99.90;;;;;;4991693;28;20179;-66
2021/03/01 00:06:02;;;;;;;18.00;14.13;;;2.70;99.90;;;;;;5003758;28;20186;-65
2021/03/01 00:08:28;;;;;;;19.27;14.00;;;2.60;99.90;;;;;;4988068;28;20196;-65
2021/03/01 00:10:53;;;;;;;20.40;13.00;;;2.60;99.90;;;;;;4987338;28;20681;-66
2021/03/01 00:13:20;;;;;;;18.60;12.90;;;2.70;99.90;;;;;;4976269;28;20489;-65
2021/03/01 00:15:46;;;;;;;18.57;11.30;;;2.70;99.90;;;;;;4989093;28;20856;-65
2021/03/01 00:18:12;;;;;;;16.20;11.03;;;2.80;99.90;;;;;;4992834;28;20886;-65
2021/03/01 00:20:37;;;;;;;15.50;11.87;;;2.80;99.90;;;;;;5000999;28;20672;-66
2021/03/01 00:23:03;;;;;;;16.77;12.33;;;2.80;99.90;;;;;;4997992;28;20430;-65
2021/03/01 00:25:28;;;;;;;17.07;11.90;;;2.80;99.90;;;;;;4990342;28;20182;-66
2021/03/01 00:27:54;;;;;;;13.20;11.50;;;2.80;99.90;;;;;;4980094;28;20184;-66
2021/03/01 00:30:20;;;;;;;16.03;11.40;;;2.70;99.90;;;;;;4992622;28;20213;-65
2021/03/01 00:32:46;;;;;;;16.17;11.43;;;2.70;99.90;;;;;;4990905;28;20388;-65
2021/03/01 00:35:12;;;;;;;12.83;9.93;;;2.70;99.90;;;;;;5002013;28;20426;-65
2021/03/01 00:37:38;;;;;;;13.87;11.50;;;2.70;99.90;;;;;;4986607;28;20187;-65
2021/03/01 00:40:04;;;;;;;14.30;10.20;;;2.70;99.90;;;;;;4997823;28;20473;-65
2021/03/01 00:42:30;;;;;;;13.07;9.77;;;2.60;99.90;;;;;;4989461;28;20526;-66
2021/03/01 00:44:55;;;;;;;13.60;10.63;;;2.60;99.90;;;;;;4974593;28;21001;-66
2021/03/01 00:47:21;;;;;;;16.37;11.37;;;2.50;99.90;;;;;;5006417;28;20182;-65
2021/03/01 00:49:46;;;;;;;23.00;11.20;;;2.50;99.90;;;;;;5002031;28;20218;-65
2021/03/01 00:52:12;;;;;;;16.27;11.47;;;2.50;99.90;;;;;;4985893;28;20230;-65
2021/03/01 00:54:38;;;;;;;12.03;9.93;;;2.50;99.90;;;;;;5004226;28;20175;-66
2021/03/01 00:57:04;;;;;;;12.50;10.27;;;2.50;99.90;;;;;;4990186;28;20171;-65
2021/03/01 00:59:30;;;;;;;15.03;10.30;;;2.50;99.90;;;;;;4990396;28;20199;-65
2021/03/01 01:01:55;;;;;;;13.43;9.90;;;2.50;99.90;;;;;;4999706;28;20434;-65
2021/03/01 01:04:21;;;;;;;16.37;10.00;;;2.50;99.90;;;;;;4999929;28;20188;-65
2021/03/01 01:06:47;;;;;;;14.07;9.30;;;2.50;99.90;;;;;;5008734;28;20183;-66
2021/03/01 01:09:13;;;;;;;15.07;10.80;;;2.40;99.90;;;;;;5004447;28;20885;-66
2021/03/01 01:11:39;;;;;;;13.57;9.63;;;2.40;99.90;;;;;;5003059;28;20172;-65
2021/03/01 01:14:05;;;;;;;18.73;10.03;;;2.30;99.90;;;;;;4989045;28;20180;-65
2021/03/01 01:16:30;;;;;;;17.90;10.13;;;2.40;99.90;;;;;;5002259;28;20940;-65
2021/03/01 01:18:56;;;;;;;15.93;10.17;;;2.30;99.90;;;;;;5001225;28;20449;-66
2021/03/01 01:21:21;;;;;;;14.67;9.83;;;2.30;99.90;;;;;;5004262;28;20183;-65
2021/03/01 01:23:47;;;;;;;12.33;8.83;;;2.30;99.90;;;;;;4995529;28;20747;-65
2021/03/01 01:26:12;;;;;;;18.90;9.90;;;2.30;99.90;;;;;;4994793;28;20187;-65
2021/03/01 01:28:38;;;;;;;14.73;9.20;;;2.20;99.90;;;;;;4982623;28;20696;-65
2021/03/01 01:31:03;;;;;;;13.83;11.53;;;2.10;99.90;;;;;;4983030;28;20246;-65
2021/03/01 01:33:29;;;;;;;16.17;10.87;;;2.10;99.90;;;;;;5002253;28;20171;-65
2021/03/01 01:35:54;;;;;;;20.13;10.67;;;2.00;99.90;;;;;;5005861;28;20187;-65
2021/03/01 01:38:20;;;;;;;16.20;11.40;;;2.00;99.90;;;;;;5003315;28;20207;-65
2021/03/01 01:40:45;;;;;;;13.67;10.33;;;2.00;99.90;;;;;;4997737;28;20257;-65
2021/03/01 01:43:11;;;;;;;15.37;11.20;;;2.00;99.90;;;;;;4995957;28;20199;-66
2021/03/01 01:45:37;;;;;;;14.70;9.73;;;2.00;99.90;;;;;;4979037;28;20187;-66
2021/03/01 01:48:04;;;;;;;14.97;9.83;;;2.00;99.90;;;;;;4988084;28;20176;-66
2021/03/01 01:50:30;;;;;;;13.00;10.30;;;2.10;99.90;;;;;;5009544;28;20209;-65
2021/03/01 01:52:56;;;;;;;15.30;9.53;;;2.10;99.90;;;;;;4993233;28;20461;-66
2021/03/01 01:55:24;;;;;;;12.87;9.00;;;2.00;99.90;;;;;;5005245;28;20454;-66
2021/03/01 01:57:49;;;;;;;14.13;9.10;;;2.00;99.90;;;;;;4998460;28;20447;-65
2021/03/01 02:01:00;;;;;;;14.73;10.87;;;2.00;99.90;;;;;;4988239;28;20438;-66
2021/03/01 02:03:44;;;;;;;10.63;9.00;;;1.90;99.90;;;;;;4973878;28;20587;-66
2021/03/01 02:06:14;;;;;;;13.83;10.30;;;1.80;99.90;;;;;;5008776;28;20433;-66
2021/03/01 02:09:15;;;;;;;12.17;9.13;;;1.70;99.90;;;;;;4993078;28;20511;-65
2021/03/01 02:12:05;;;;;;;12.37;9.20;;;1.70;99.90;;;;;;4992046;28;20427;-66
2021/03/01 02:14:54;;;;;;;10.70;7.70;;;1.70;99.90;;;;;;4980908;28;20445;-65
2021/03/01 02:17:20;;;;;;;13.93;9.67;;;1.70;99.90;;;;;;5003579;28;20431;-65
2021/03/01 02:19:45;;;;;;;12.60;9.10;;;1.70;99.90;;;;;;5007176;28;20460;-66
2021/03/01 02:22:11;;;;;;;14.37;10.07;;;1.70;99.90;;;;;;5003461;28;20183;-65
2021/03/01 02:25:04;;;;;;;15.10;10.87;;;1.60;99.90;;;;;;5002512;28;20186;-66
2021/03/01 02:27:32;;;;;;;10.77;9.27;;;1.60;99.90;;;;;;4992408;28;20188;-65
2021/03/01 02:30:10;;;;;;;13.63;9.43;;;1.60;99.90;;;;;;5008387;28;20476;-65
2021/03/01 02:32:38;;;;;;;12.97;9.43;;;1.60;99.90;;;;;;4993670;28;20870;-65
2021/03/01 02:35:06;;;;;;;10.33;8.03;;;1.60;99.90;;;;;;4992903;28;20444;-66
2021/03/01 02:37:35;;;;;;;11.43;9.60;;;1.60;99.90;;;;;;5001926;28;20439;-66
2021/03/01 02:40:02;;;;;;;13.00;9.50;;;1.70;99.90;;;;;;4990682;28;21106;-66
2021/03/01 02:42:30;;;;;;;15.60;10.80;;;1.70;99.90;;;;;;4991274;28;20458;-66
2021/03/01 02:44:56;;;;;;;11.77;8.90;;;1.70;99.90;;;;;;4984323;28;20885;-66
2021/03/01 02:47:25;;;;;;;13.10;8.90;;;1.70;99.90;;;;;;4996214;28;20850;-65
2021/03/01 02:49:54;;;;;;;12.80;9.13;;;1.70;99.90;;;;;;4997060;28;20498;-66
2021/03/01 02:52:21;;;;;;;15.50;10.53;;;1.70;99.90;;;;;;5001413;28;20485;-66
2021/03/01 02:54:48;;;;;;;13.03;9.27;;;1.70;99.90;;;;;;4995873;28;20437;-65
2021/03/01 02:57:14;;;;;;;10.90;8.63;;;1.60;99.90;;;;;;4999802;28;20423;-66
2021/03/01 02:59:42;;;;;;;13.03;8.60;;;1.60;99.90;;;;;;4997119;28;20463;-66
2021/03/01 03:02:08;;;;;;;13.50;8.33;;;1.50;99.90;;;;;;5004034;28;20445;-66
2021/03/01 03:04:36;;;;;;;12.97;11.03;;;1.50;99.90;;;;;;4991911;28;20443;-66
2021/03/01 03:07:03;;;;;;;11.77;9.23;;;1.50;99.90;;;;;;4985369;28;20435;-65
2021/03/01 03:09:29;;;;;;;13.77;9.60;;;1.50;99.90;;;;;;5000711;28;20536;-65
2021/03/01 03:11:58;;;;;;;14.33;9.40;;;1.40;99.90;;;;;;4994940;28;20742;-66
2021/03/01 03:14:26;;;;;;;12.10;9.30;;;1.40;99.90;;;;;;4989462;28;20514;-65
2021/03/01 03:16:54;;;;;;;13.73;8.83;;;1.30;99.90;;;;;;5002615;28;20427;-66
2021/03/01 03:19:21;;;;;;;12.20;10.00;;;1.30;99.90;;;;;;5002516;28;20458;-65
2021/03/01 03:21:46;;;;;;;14.17;8.33;;;1.30;99.90;;;;;;5006924;28;20430;-65
2021/03/01 03:24:12;;;;;;;14.97;9.40;;;1.30;99.90;;;;;;4992961;28;20449;-66
2021/03/01 03:26:38;;;;;;;14.70;10.27;;;1.40;99.90;;;;;;4992002;28;20249;-66
2021/03/01 03:29:03;;;;;;;11.53;8.80;;;1.40;99.90;;;;;;4999782;28;20548;-65
2021/03/01 03:31:29;;;;;;;12.80;9.37;;;1.40;99.90;;;;;;4981671;28;20175;-66
2021/03/01 03:33:54;;;;;;;13.70;9.37;;;1.40;99.90;;;;;;5001702;28;20178;-66
2021/03/01 03:36:24;;;;;;;10.63;8.03;;;1.40;99.90;;;;;;4994056;28;20191;-65
2021/03/01 03:38:57;;;;;;;13.70;9.53;;;1.40;99.90;;;;;;5007737;28;20356;-67
2021/03/01 03:41:23;;;;;;;14.50;9.73;;;1.30;99.90;;;;;;4996958;28;20794;-66
2021/03/01 03:43:50;;;;;;;18.43;10.33;;;1.30;99.90;;;;;;4983039;28;20437;-66
2021/03/01 03:46:17;;;;;;;17.00;10.67;;;1.30;99.90;;;;;;5007481;28;20474;-65
2021/03/01 03:48:44;;;;;;;16.23;10.00;;;1.30;99.90;;;;;;4997788;28;20461;-65
2021/03/01 03:51:12;;;;;;;15.87;9.43;;;1.30;99.90;;;;;;4992172;28;20429;-65
2021/03/01 03:53:44;;;;;;;12.57;9.60;;;1.30;99.90;;;;;;4988614;28;20435;-66
2021/03/01 03:56:11;;;;;;;13.37;10.13;;;1.40;99.90;;;;;;4995423;28;20516;-65
2021/03/01 03:58:44;;;;;;;15.37;10.37;;;1.40;99.90;;;;;;4994527;28;20593;-65
2021/03/01 04:01:13;;;;;;;12.50;8.87;;;1.40;99.90;;;;;;4995608;28;20426;-65
2021/03/01 04:03:41;;;;;;;12.67;9.23;;;1.30;99.90;;;;;;5002384;28;20426;-66
2021/03/01 04:06:10;;;;;;;17.40;9.40;;;1.30;99.90;;;;;;4991583;28;21050;-66
2021/03/01 04:08:37;;;;;;;14.27;10.43;;;1.30;99.90;;;;;;4976960;28;20467;-66
2021/03/01 04:11:03;;;;;;;16.03;10.40;;;1.30;99.90;;;;;;4996778;28;20439;-66
2021/03/01 04:13:31;;;;;;;12.30;10.57;;;1.30;99.90;;;;;;4998540;28;20438;-66
2021/03/01 04:15:56;;;;;;;14.53;9.87;;;1.30;99.90;;;;;;4989687;28;20581;-66
2021/03/01 04:18:30;;;;;;;12.10;8.83;;;1.20;99.90;;;;;;4993986;28;20897;-66
2021/03/01 04:20:56;;;;;;;13.57;10.00;;;1.30;99.90;;;;;;5000854;28;20268;-66
2021/03/01 04:23:22;;;;;;;14.77;10.63;;;1.30;99.90;;;;;;4987127;28;20453;-65
2021/03/01 04:25:50;;;;;;;12.87;10.57;;;1.20;99.90;;;;;;4996209;28;20446;-66
2021/03/01 04:28:18;;;;;;;14.27;9.60;;;1.20;99.90;;;;;;4984910;28;20461;-66
2021/03/01 04:30:45;;;;;;;16.97;10.63;;;1.20;99.90;;;;;;4980975;28;20933;-66
2021/03/01 04:33:12;;;;;;;23.43;11.40;;;1.20;99.90;;;;;;4990365;28;20647;-66
2021/03/01 04:35:38;;;;;;;13.30;10.33;;;1.10;99.90;;;;;;4993509;28;20998;-66
2021/03/01 04:38:04;;;;;;;12.43;9.70;;;1.10;99.90;;;;;;4993158;28;20464;-66
2021/03/01 04:40:30;;;;;;;16.70;11.80;;;1.10;99.90;;;;;;4987713;28;20442;-66
2021/03/01 04:42:57;;;;;;;15.20;9.73;;;1.10;99.90;;;;;;4999145;28;20445;-66
2021/03/01 04:45:23;;;;;;;13.60;10.07;;;1.10;99.90;;;;;;4993891;28;20180;-66
2021/03/01 04:47:51;;;;;;;14.97;10.10;;;1.10;99.90;;;;;;4984865;28;20810;-66
2021/03/01 04:50:18;;;;;;;10.90;8.23;;;1.10;99.90;;;;;;5000833;28;20492;-66
2021/03/01 04:52:45;;;;;;;17.97;10.40;;;1.00;99.90;;;;;;4994439;28;20450;-66
2021/03/01 04:55:12;;;;;;;16.93;10.63;;;1.00;99.90;;;;;;4982120;28;20434;-66
2021/03/01 04:57:39;;;;;;;14.50;10.37;;;1.00;99.90;;;;;;5004509;28;20449;-66
2021/03/01 05:00:08;;;;;;;14.43;10.90;;;1.10;99.90;;;;;;4990105;28;20500;-66
2021/03/01 05:02:35;;;;;;;15.13;9.73;;;1.10;99.90;;;;;;4989556;28;20466;-66
2021/03/01 05:05:02;;;;;;;19.77;11.57;;;1.00;99.90;;;;;;4994012;28;20433;-66
2021/03/01 05:07:29;;;;;;;15.57;9.63;;;0.90;99.90;;;;;;5001991;28;20442;-66
2021/03/01 05:09:55;;;;;;;14.27;9.93;;;0.90;99.90;;;;;;4992494;28;20517;-66
2021/03/01 05:12:21;;;;;;;18.57;11.10;;;0.90;99.90;;;;;;5005568;28;20468;-66
2021/03/01 05:14:46;;;;;;;16.37;11.97;;;0.90;99.90;;;;;;5007118;28;20434;-66
2021/03/01 05:17:12;;;;;;;12.93;9.90;;;0.90;99.90;;;;;;5002163;28;20194;-66
2021/03/01 05:19:37;;;;;;;13.03;9.50;;;0.80;99.90;;;;;;5004811;28;20230;-66
2021/03/01 05:22:03;;;;;;;16.90;10.00;;;0.80;99.90;;;;;;4995342;28;20198;-66
2021/03/01 05:24:30;;;;;;;18.23;10.20;;;0.80;99.90;;;;;;4991122;28;20179;-65
2021/03/01 05:26:55;;;;;;;12.33;8.90;;;0.80;99.90;;;;;;4994861;28;20437;-65
2021/03/01 05:29:21;;;;;;;15.67;10.23;;;0.90;99.90;;;;;;4990696;28;20840;-66
2021/03/01 05:31:46;;;;;;;15.40;9.00;;;0.80;99.90;;;;;;4991971;28;20238;-66
2021/03/01 05:34:12;;;;;;;13.23;8.77;;;0.80;99.90;;;;;;4995986;28;20226;-66
2021/03/01 05:36:38;;;;;;;17.53;10.00;;;0.70;99.90;;;;;;5000914;28;20313;-66
2021/03/01 05:39:04;;;;;;;17.47;11.57;;;0.70;99.90;;;;;;5013927;22;20259;-68
2021/03/01 05:41:32;;;;;;;18.30;11.53;;;0.70;99.90;;;;;;4976098;28;20259;-67
2021/03/01 05:43:58;;;;;;;12.87;10.30;;;0.70;99.90;;;;;;4973149;28;20419;-68
2021/03/01 05:46:24;;;;;;;14.93;9.50;;;0.70;99.90;;;;;;4981515;28;20419;-68
2021/03/01 05:48:50;;;;;;;15.23;9.07;;;0.70;99.90;;;;;;4980402;28;20517;-68
2021/03/01 05:51:16;;;;;;;15.80;10.03;;;0.70;99.90;;;;;;4981291;28;20180;-67
2021/03/01 05:53:43;;;;;;;19.30;10.40;;;0.70;99.90;;;;;;4991843;28;20790;-67
2021/03/01 05:56:10;;;;;;;13.80;10.53;;;0.70;99.90;;;;;;4974532;28;20251;-67
2021/03/01 05:58:38;;;;;;;15.00;11.37;;;0.70;99.90;;;;;;4981505;28;20734;-67
2021/03/01 06:01:04;;;;;;;18.63;10.47;;;0.60;99.90;;;;;;4974670;28;20423;-67
2021/03/01 06:03:31;;;;;;;15.17;10.10;;;0.60;99.90;;;;;;4987757;28;20867;-68
2021/03/01 06:05:58;;;;;;;15.90;10.27;;;0.60;99.90;;;;;;4987287;28;20428;-67
2021/03/01 06:08:25;;;;;;;15.73;11.07;;;0.60;99.90;;;;;;4980335;28;21025;-68
2021/03/01 06:10:58;;;;;;;15.00;10.80;;;0.60;99.90;;;;;;4979914;28;20489;-68
2021/03/01 06:13:25;;;;;;;15.43;12.27;;;0.70;99.90;;;;;;4979193;28;20530;-68
2021/03/01 06:15:54;;;;;;;14.23;9.00;;;0.70;99.90;;;;;;4990364;28;20445;-67
2021/03/01 06:18:21;;;;;;;14.53;10.53;;;0.70;99.90;;;;;;4986232;28;20481;-67
2021/03/01 06:20:46;;;;;;;13.03;9.17;;;0.70;99.90;;;;;;4984851;28;20428;-68
2021/03/01 06:23:12;;;;;;;19.30;10.47;;;0.70;99.90;;;;;;4993443;28;20797;-67
2021/03/01 06:25:38;;;;;;;16.90;13.10;;;0.70;99.90;;;;;;5006137;28;20597;-68
2021/03/01 06:28:05;;;;;;;16.83;10.93;;;0.70;99.90;;;;;;4985136;28;20184;-68
2021/03/01 06:30:39;;;;;;;21.73;13.30;;;0.70;99.90;;;;;;4980449;28;20545;-67
2021/03/01 06:33:09;;;;;;;19.80;11.43;;;0.60;99.90;;;;;;4993818;28;21012;-67
2021/03/01 06:35:36;;;;;;;20.93;12.70;;;0.70;99.90;;;;;;4987782;28;20449;-67
2021/03/01 06:38:28;;;;;;;24.00;12.10;;;0.80;99.90;;;;;;4996293;28;20451;-67
2021/03/01 06:41:18;;;;;;;20.30;13.63;;;1.10;99.90;;;;;;4997164;28;20504;-68
2021/03/01 06:43:55;;;;;;;26.37;14.20;;;1.40;99.90;;;;;;4993326;28;20437;-67
2021/03/01 06:46:22;;;;;;;20.10;12.13;;;1.70;99.90;;;;;;4973978;28;20836;-68
2021/03/01 06:48:48;;;;;;;21.90;11.90;;;1.80;99.90;;;;;;4974327;28;20819;-67
2021/03/01 06:51:15;;;;;;;14.97;9.83;;;1.90;99.90;;;;;;4984856;28;20955;-68
2021/03/01 06:53:40;;;;;;;16.60;11.57;;;2.20;99.90;;;;;;5003590;28;20808;-67
2021/03/01 06:56:07;;;;;;;23.33;12.00;;;2.40;99.90;;;;;;5008489;28;20970;-66
2021/03/01 06:58:34;;;;;;;13.00;9.73;;;2.50;99.90;;;;;;5004154;28;20176;-67
2021/03/01 07:01:02;;;;;;;15.80;11.20;;;2.70;99.90;;;;;;4995550;28;20943;-67
2021/03/01 07:03:28;;;;;;;16.07;10.97;;;2.80;99.90;;;;;;4997036;28;20997;-67
2021/03/01 07:05:55;;;;;;;18.43;13.57;;;3.10;99.90;;;;;;4983253;28;20439;-68
2021/03/01 07:08:44;;;;;;;15.20;11.30;;;3.30;99.90;;;;;;4993397;28;20167;-67
2021/03/01 07:11:23;;;;;;;16.80;12.30;;;3.60;99.90;;;;;;4985183;28;20440;-68
2021/03/01 07:13:49;;;;;;;20.00;10.37;;;3.80;99.90;;;;;;4987853;28;20726;-68
2021/03/01 07:16:15;;;;;;;17.13;11.40;;;3.90;99.90;;;;;;4990240;28;20471;-68
2021/03/01 07:18:42;;;;;;;18.70;12.63;;;4.10;99.90;;;;;;4982992;28;20451;-66
2021/03/01 07:21:12;;;;;;;13.67;10.20;;;4.20;99.90;;;;;;4990972;28;20510;-67
2021/03/01 07:23:48;;;;;;;19.27;12.40;;;4.30;99.90;;;;;;4977816;28;20991;-67
2021/03/01 07:26:16;;;;;;;16.10;10.00;;;4.40;99.90;;;;;;4989510;28;20454;-67
2021/03/01 07:28:44;;;;;;;16.47;11.97;;;4.60;99.90;;;;;;4984131;28;20470;-67
2021/03/01 07:31:14;;;;;;;15.60;11.10;;;4.70;99.90;;;;;;4991922;28;20505;-67
2021/03/01 07:33:41;;;;;;;13.87;11.20;;;4.80;99.90;;;;;;4986847;28;20967;-67
2021/03/01 07:36:07;;;;;;;17.40;12.47;;;4.90;99.90;;;;;;4984493;28;20505;-66
2021/03/01 07:38:34;;;;;;;15.93;11.90;;;5.00;99.90;;;;;;4975791;28;20872;-67
2021/03/01 07:41:01;;;;;;;17.60;10.53;;;5.20;99.90;;;;;;4985115;28;20513;-67
2021/03/01 07:43:27;;;;;;;17.00;11.50;;;5.30;99.90;;;;;;4976732;28;20457;-66
2021/03/01 07:45:54;;;;;;;19.53;12.30;;;5.40;99.90;;;;;;4981579;28;20431;-67
2021/03/01 07:48:20;;;;;;;15.80;11.63;;;5.50;99.90;;;;;;4998607;28;20874;-66
2021/03/01 07:50:47;;;;;;;17.87;14.10;;;5.70;99.90;;;;;;4989906;28;20553;-67
2021/03/01 07:53:50;;;;;;;16.33;12.30;;;6.00;99.90;;;;;;4989899;28;20195;-67
2021/03/01 07:56:45;;;;;;;16.60;13.20;;;6.10;99.90;;;;;;4978676;28;20912;-67
2021/03/01 07:59:12;;;;;;;17.10;11.17;;;6.30;99.90;;;;;;4982701;28;20528;-67
2021/03/01 08:01:39;;;;;;;20.43;11.47;;;6.70;99.90;;;;;;4986499;28;20931;-66
2021/03/01 08:04:05;;;;;;;17.50;12.30;;;7.00;99.90;;;;;;4988316;28;20426;-66
2021/03/01 08:06:54;;;;;;;12.83;11.23;;;7.30;99.90;;;;;;4986936;28;20426;-66
2021/03/01 08:09:46;;;;;;;16.97;12.63;;;7.60;99.90;;;;;;4981330;28;20523;-66
2021/03/01 08:12:33;;;;;;;16.33;13.00;;;8.00;99.90;;;;;;4986821;28;20815;-67
2021/03/01 08:15:03;;;;;;;13.60;12.03;;;8.20;99.90;;;;;;4976088;28;20769;-67
2021/03/01 08:17:28;;;;;;;17.07;12.20;;;8.50;99.90;;;;;;4980952;28;20474;-67
2021/03/01 08:20:00;;;;;;;14.13;12.10;;;8.70;99.90;;;;;;4981857;28;20479;-67
2021/03/01 08:22:26;;;;;;;14.90;12.07;;;9.10;99.90;;;;;;4983640;28;20255;-67
2021/03/01 08:24:53;;;;;;;16.93;13.20;;;9.20;99.90;;;;;;4992521;28;20426;-67
2021/03/01 08:27:25;;;;;;;18.60;12.50;;;9.50;99.90;;;;;;4978290;28;20466;-67
2021/03/01 08:30:15;;;;;;;17.07;14.70;;;10.00;99.90;;;;;;4980180;28;21024;-66
2021/03/01 08:32:41;;;;;;;15.77;12.43;;;10.30;99.90;;;;;;4973988;28;20794;-67
2021/03/01 08:35:24;;;;;;;16.93;13.33;;;10.20;99.90;;;;;;4984976;28;20469;-67
2021/03/01 08:37:50;;;;;;;16.50;12.93;;;10.80;99.90;;;;;;4982356;28;20198;-67
2021/03/01 08:40:22;;;;;;;18.30;13.47;;;11.10;99.00;;;;;;4995817;28;20470;-67
2021/03/01 08:43:01;;;;;;;13.37;11.83;;;11.40;98.60;;;;;;4985444;28;20180;-67
2021/03/01 08:45:44;;;;;;;13.87;12.10;;;12.20;97.70;;;;;;4986868;28;20795;-67
2021/03/01 08:48:20;;;;;;;11.90;10.80;;;12.60;94.80;;;;;;4985453;28;20842;-68
2021/03/01 08:50:51;;;;;;;12.37;10.97;;;13.00;94.20;;;;;;4976080;28;20470;-68
2021/03/01 08:53:21;;;;;;;13.50;11.43;;;13.70;91.30;;;;;;4984329;28;20431;-65
2021/03/01 08:55:46;;;;;;;20.33;11.40;;;14.40;89.30;;;;;;4986932;28;20430;-65
2021/03/01 08:58:13;;;;;;;12.20;11.00;;;15.20;83.80;;;;;;4981483;28;20443;-65
2021/03/01 09:00:48;;;;;;;13.07;11.87;;;15.90;78.60;;;;;;4976394;28;20223;-64
2021/03/01 09:03:19;;;;;;;11.40;10.30;;;16.30;75.10;;;;;;4975568;28;20445;-66
2021/03/01 09:05:47;;;;;;;14.00;12.53;;;16.90;67.90;;;;;;4984453;28;20435;-65
2021/03/01 09:08:13;;;;;;;12.70;11.37;;;16.60;66.00;;;;;;4973575;28;20439;-64
2021/03/01 09:10:44;;;;;;;14.77;12.70;;;16.60;64.40;;;;;;4974650;28;20518;-65
2021/03/01 09:13:16;;;;;;;10.77;9.67;;;16.60;62.80;;;;;;4985665;28;21220;-65
2021/03/01 09:15:42;;;;;;;12.33;11.13;;;16.00;63.20;;;;;;4971892;28;20625;-65
2021/03/01 09:18:09;;;;;;;9.40;8.60;;;15.90;64.30;;;;;;4987666;28;21017;-65
2021/03/01 09:20:45;;;;;;;10.67;9.63;;;16.00;61.80;;;;;;4991308;28;20235;-65
2021/03/01 09:23:12;;;;;;;9.20;8.30;;;16.10;62.30;;;;;;4991233;28;20461;-65
2021/03/01 09:25:39;;;;;;;9.30;8.40;;;16.80;60.20;;;;;;4985661;28;20526;-65
2021/03/01 09:28:05;;;;;;;9.87;8.90;;;16.80;58.60;;;;;;4982644;28;20442;-65
2021/03/01 09:30:32;;;;;;;9.77;8.87;;;16.70;58.80;;;;;;4983109;28;20848;-65
2021/03/01 09:33:06;;;;;;;10.10;9.10;;;17.40;57.70;;;;;;4979234;28;21003;-65
2021/03/01 09:35:35;;;;;;;17.13;10.03;;;17.80;56.90;;;;;;4976012;28;20443;-65
2021/03/01 09:38:04;;;;;;;9.33;8.53;;;17.40;55.80;;;;;;4989996;28;20955;-65
2021/03/01 09:40:31;;;;;;;12.67;8.77;;;17.60;56.20;;;;;;4980968;28;20463;-65
2021/03/01 09:43:04;;;;;;;13.20;11.10;;;17.70;55.50;;;;;;4981930;28;20435;-65
2021/03/01 09:45:35;;;;;;;9.97;8.90;;;18.50;54.80;;;;;;4980905;28;20489;-63
2021/03/01 09:48:03;;;;;;;9.53;8.80;;;18.40;53.50;;;;;;4984261;28;20433;-65
2021/03/01 09:50:29;;;;;;;11.17;10.07;;;17.70;53.30;;;;;;4980628;28;20474;-65
2021/03/01 09:52:56;;;;;;;11.67;10.33;;;16.80;54.70;;;;;;4989881;28;20811;-65
2021/03/01 09:55:22;;;;;;;9.67;8.77;;;16.50;55.30;;;;;;4977815;28;20477;-66
2021/03/01 09:57:48;;;;;;;10.07;9.07;;;16.90;55.30;;;;;;4992736;28;20943;-66
2021/03/01 10:00:22;;;;;;;9.07;8.17;;;17.20;54.40;;;;;;4993738;28;20455;-65
2021/03/01 10:02:58;;;;;;;10.30;9.47;;;18.10;54.50;;;;;;4979994;28;20462;-66
2021/03/01 10:05:25;;;;;;;9.97;9.03;;;18.40;51.00;;;;;;4987125;28;20435;-66
2021/03/01 10:07:55;;;;;;;10.70;9.60;;;18.20;51.20;;;;;;4979813;28;20463;-66
2021/03/01 10:10:21;;;;;;;9.27;8.47;;;17.70;50.60;;;;;;4987040;28;20455;-66
2021/03/01 10:12:48;;;;;;;11.77;10.70;;;17.40;51.50;;;;;;4986350;28;20443;-65
2021/03/01 10:15:14;;;;;;;10.93;9.30;;;17.70;50.80;;;;;;4985010;28;20427;-66
2021/03/01 10:17:40;;;;;;;11.63;9.77;;;17.70;49.80;;;;;;4991493;28;20937;-66
2021/03/01 10:20:10;;;;;;;9.87;8.97;;;18.20;50.20;;;;;;4981919;28;20283;-66
2021/03/01 10:22:59;;;;;;;12.90;9.30;;;18.90;48.60;;;;;;4988984;28;20550;-65
2021/03/01 10:25:38;;;;;;;9.70;8.70;;;17.90;48.20;;;;;;4984616;28;20636;-65
2021/03/01 10:28:05;;;;;;;11.03;9.03;;;17.70;49.40;;;;;;4985141;28;20432;-65
2021/03/01 10:30:31;;;;;;;10.13;8.57;;;17.60;48.50;;;;;;4981002;28;20467;-66
2021/03/01 10:33:05;;;;;;;8.90;8.20;;;18.10;48.70;;;;;;4989724;28;20427;-66
2021/03/01 10:35:31;;;;;;;13.07;8.20;;;19.20;46.60;;;;;;4991273;28;20179;-66
2021/03/01 10:38:01;;;;;;;8.70;7.67;;;19.80;45.70;;;;;;4990896;28;20434;-66
2021/03/01 10:40:27;;;;;;;9.20;8.30;;;19.90;45.30;;;;;;4986814;28;20222;-65
2021/03/01 10:42:53;;;;;;;8.67;7.83;;;20.50;44.10;;;;;;4984117;28;20439;-66
2021/03/01 10:45:19;;;;;;;7.80;7.20;;;21.00;43.00;;;;;;4976648;28;20186;-66
2021/03/01 10:47:58;;;;;;;9.50;8.50;;;20.80;42.60;;;;;;4991206;28;20427;-65
2021/03/01 10:50:23;;;;;;;9.30;8.40;;;20.50;41.70;;;;;;4989946;28;20261;-66
2021/03/01 10:52:50;;;;;;;8.47;7.77;;;19.90;42.60;;;;;;4976379;28;20854;-66
2021/03/01 10:55:16;;;;;;;10.63;8.00;;;20.50;41.90;;;;;;5003346;28;20180;-65
2021/03/01 10:57:41;;;;;;;9.57;8.10;;;19.80;41.90;;;;;;4984403;28;20485;-65
2021/03/01 11:00:07;;;;;;;8.60;7.57;;;21.00;40.60;;;;;;4983431;28;20207;-65
2021/03/01 11:02:33;;;;;;;9.53;8.53;;;21.80;39.90;;;;;;4991137;28;20203;-65
2021/03/01 11:04:58;;;;;;;7.17;6.57;;;22.30;39.00;;;;;;4983485;28;20477;-66
2021/03/01 11:07:26;;;;;;;8.83;8.13;;;22.50;38.10;;;;;;4987077;28;20512;-66
2021/03/01 11:09:51;;;;;;;8.43;7.73;;;22.60;37.20;;;;;;4984354;28;20211;-65
2021/03/01 11:12:17;;;;;;;7.80;7.07;;;23.10;36.10;;;;;;4989328;28;20441;-65
2021/03/01 11:14:42;;;;;;;8.70;7.80;;;23.00;34.90;;;;;;4982029;28;20629;-65
2021/03/01 11:17:08;;;;;;;7.33;6.60;;;22.10;35.10;;;;;;4992671;28;20175;-64
2021/03/01 11:19:34;;;;;;;9.93;7.43;;;21.10;34.90;;;;;;4990343;28;20198;-66
2021/03/01 11:21:59;;;;;;;7.50;6.80;;;20.60;36.30;;;;;;4996496;28;20184;-65
2021/03/01 11:24:25;;;;;;;6.40;5.77;;;20.90;35.40;;;;;;4987819;28;20637;-64
2021/03/01 11:26:52;;;;;;;6.97;6.37;;;20.80;35.30;;;;;;4975847;28;20242;-64
2021/03/01 11:29:18;;;;;;;8.90;7.00;;;20.10;35.70;;;;;;4999347;28;20727;-64
2021/03/01 11:31:44;;;;;;;7.20;6.60;;;20.70;35.20;;;;;;4986222;28;20433;-64
2021/03/01 11:34:10;;;;;;;6.50;5.97;;;21.10;35.10;;;;;;4988630;28;20509;-65
2021/03/01 11:36:36;;;;;;;7.37;6.70;;;21.30;33.90;;;;;;4994156;28;20518;-66
2021/03/01 11:39:04;;;;;;;6.23;5.73;;;21.70;34.10;;;;;;5014851;23;20819;-68
2021/03/01 11:41:29;;;;;;;6.33;5.83;;;22.60;32.20;;;;;;5004947;28;20430;-68
2021/03/01 11:43:55;;;;;;;6.03;5.53;;;22.90;31.20;;;;;;5000020;28;20421;-69
2021/03/01 11:46:20;;;;;;;5.80;5.27;;;22.90;31.70;;;;;;4998758;28;20699;-69
2021/03/01 11:48:47;;;;;;;5.57;5.10;;;23.40;31.70;;;;;;4990886;28;20183;-68
2021/03/01 11:51:14;;;;;;;5.43;4.87;;;24.20;30.60;;;;;;4960398;28;20666;-68
2021/03/01 11:53:40;;;;;;;6.20;5.70;;;23.70;30.30;;;;;;4983592;28;20436;-68
2021/03/01 11:56:06;;;;;;;6.03;5.53;;;23.60;30.10;;;;;;4973411;28;20455;-68
2021/03/01 11:58:32;;;;;;;10.50;6.63;;;24.20;30.00;;;;;;4974791;28;20436;-68
2021/03/01 12:00:57;;;;;;;6.30;5.27;;;23.80;30.00;;;;;;4975047;28;20466;-68
2021/03/01 12:03:24;;;;;;;6.70;5.47;;;23.80;30.00;;;;;;4985320;28;20262;-68
2021/03/01 12:05:50;;;;;;;5.20;4.80;;;24.10;29.60;;;;;;4977299;28;20212;-69
2021/03/01 12:08:15;;;;;;;6.50;6.00;;;23.70;29.90;;;;;;4971996;28;20463;-68
2021/03/01 12:10:41;;;;;;;5.50;5.10;;;23.30;29.80;;;;;;4974097;28;20250;-68
2021/03/01 12:13:07;;;;;;;5.43;4.93;;;23.60;30.10;;;;;;4987162;28;20262;-68
2021/03/01 12:15:32;;;;;;;5.73;5.30;;;24.40;29.90;;;;;;4975519;28;20247;-68
2021/03/01 12:17:58;;;;;;;10.80;4.77;;;24.30;29.70;;;;;;4988997;28;20206;-69
2021/03/01 12:20:24;;;;;;;5.77;5.27;;;25.10;29.50;;;;;;4967308;28;20682;-68
2021/03/01 12:22:50;;;;;;;5.47;5.07;;;25.00;29.40;;;;;;4985060;28;20426;-69
2021/03/01 12:25:16;;;;;;;4.47;4.07;;;23.90;29.80;;;;;;4971596;28;20459;-68
2021/03/01 12:27:42;;;;;;;4.67;4.27;;;23.90;29.80;;;;;;4971272;28;20220;-68
2021/03/01 12:30:09;;;;;;;4.90;4.27;;;23.50;30.30;;;;;;4971654;28;20498;-67
2021/03/01 12:32:34;;;;;;;5.70;5.20;;;23.80;30.20;;;;;;4971578;28;20172;-67
2021/03/01 12:35:01;;;;;;;5.67;5.27;;;24.70;29.80;;;;;;4970585;28;20427;-68
2021/03/01 12:37:27;;;;;;;4.43;4.03;;;24.70;29.80;;;;;;4971609;28;20179;-68
2021/03/01 12:39:54;;;;;;;4.80;4.40;;;25.00;29.80;;;;;;4971383;28;20525;-68
2021/03/01 12:42:20;;;;;;;5.10;4.70;;;25.50;29.60;;;;;;4971774;28;20443;-68
2021/03/01 12:44:45;;;;;;;4.97;4.50;;;26.80;29.10;;;;;;4971284;28;20916;-68
2021/03/01 12:47:11;;;;;;;6.00;5.50;;;27.10;29.00;;;;;;4971817;28;20578;-68